首页
METAR-TAF:

METAR-TAF

机场 :

利兹, 英格兰

纬度: 53-52N, 经度: 001-39W, 海拔: 208米

当前天气观测

该预报发布于40分钟前的09:50 UTC
风速7节,风向东南,在南转南东之间变化
温度 15°C
湿度 72%
气压 1016 hPa
能见度10公里或以上
散云层高于1900英尺

METAR: EGNM 190950Z 13007KT 080V160 9999 SCT019 15/10 Q1016

时间: 11:30 (10:30 UTC)

预报

该预报发布于4小时和38分钟前的05:52 UTC
预报有效从19日的 06点(UTC)到 20日的 06点(UTC)
风速3节,风向多变
能见度10公里或以上
散云层高于3000英尺
几率 30% :
短暂存在
从 19日的 06点(UTC)到 19日的 09点(UTC)
多云层高于900英尺
成为
从 19日的 09点(UTC)到 19日的 12点(UTC)
风速10节,风向南转南东
成为
从 19日的 20点(UTC)到 19日的 23点(UTC)
风速7节,风向
短暂存在
从 19日的 21点(UTC)到 20日的 06点(UTC)
多云层高于900英尺

TAF: EGNM 190552Z 1906/2006 VRB03KT 9999 SCT030 PROB30 TEMPO 1906/1909 BKN009 BECMG 1909/1912 15010KT BECMG 1920/1923 09007KT TEMPO 1921/2006 BKN009

超过4000个机场的气象观测和天气预报(METAR&TAF报告)。

可查询的气象台以黄色和红色小点在地图上表示。

将鼠标移到小点上方,可查看气象台名称。

然后点击查看天气观测和预报。

如需切换地图:点击带黑十字的绿色按钮放大地图;点击带横线的绿色按钮缩小地图;或者点击绿色箭头查看邻近地区的地图。


METAR-TAF: